createdAt,value
2019-05-16T00:00:29.022Z,99.90
2019-05-16T00:02:58.915Z,99.90
2019-05-16T00:05:28.080Z,99.90
2019-05-16T00:07:59.118Z,99.90
2019-05-16T00:10:28.157Z,99.90
2019-05-16T00:12:59.235Z,99.90
2019-05-16T00:15:28.747Z,99.90
2019-05-16T00:17:58.283Z,99.90
2019-05-16T00:20:28.505Z,99.90
2019-05-16T00:22:58.930Z,99.90
2019-05-16T00:25:28.610Z,99.90
2019-05-16T00:27:58.757Z,99.90
2019-05-16T00:30:28.808Z,99.90
2019-05-16T00:32:58.750Z,99.90
2019-05-16T00:35:28.615Z,99.90
2019-05-16T00:37:59.068Z,99.90
2019-05-16T00:40:27.951Z,99.90
2019-05-16T00:42:58.612Z,99.90
2019-05-16T00:45:29.159Z,99.90
2019-05-16T00:47:58.493Z,99.90
2019-05-16T00:50:28.863Z,99.90
2019-05-16T00:52:58.961Z,99.90
2019-05-16T00:55:28.501Z,99.90
2019-05-16T00:57:58.359Z,99.90
2019-05-16T01:00:37.663Z,99.90
2019-05-16T01:03:08.011Z,99.90
2019-05-16T01:05:38.746Z,99.90
2019-05-16T01:08:07.837Z,99.90
2019-05-16T01:10:36.469Z,99.90
2019-05-16T01:13:05.010Z,99.90
2019-05-16T01:15:33.693Z,99.90
2019-05-16T01:18:02.158Z,99.90
2019-05-16T01:20:30.771Z,99.90
2019-05-16T01:22:59.304Z,99.90
2019-05-16T01:25:28.254Z,99.90
2019-05-16T01:27:58.312Z,99.90
2019-05-16T01:30:28.688Z,99.90
2019-05-16T01:32:58.278Z,99.90
2019-05-16T01:35:27.853Z,99.90
2019-05-16T01:37:58.101Z,99.90
2019-05-16T01:40:28.074Z,99.90
2019-05-16T01:42:57.840Z,99.90
2019-05-16T01:45:27.795Z,99.90
2019-05-16T01:47:58.590Z,99.90
2019-05-16T01:50:28.313Z,99.90
2019-05-16T01:52:57.889Z,99.90
2019-05-16T01:55:28.472Z,99.90
2019-05-16T01:57:58.439Z,99.90
2019-05-16T02:00:35.741Z,99.90
2019-05-16T02:02:57.925Z,99.90
2019-05-16T02:05:27.987Z,99.90
2019-05-16T02:07:58.330Z,99.90
2019-05-16T02:10:28.408Z,99.90
2019-05-16T02:12:58.125Z,99.90
2019-05-16T02:15:28.604Z,99.90
2019-05-16T02:17:58.657Z,99.90
2019-05-16T02:20:28.333Z,99.90
2019-05-16T02:22:58.542Z,99.90
2019-05-16T02:25:27.689Z,99.90
2019-05-16T02:27:56.235Z,99.90
2019-05-16T02:30:24.785Z,99.90
2019-05-16T02:32:53.312Z,99.90
2019-05-16T02:35:21.817Z,99.90
2019-05-16T02:37:54.923Z,99.90
2019-05-16T02:40:23.106Z,99.90
2019-05-16T02:42:51.846Z,99.90
2019-05-16T02:45:24.385Z,99.90
2019-05-16T02:47:51.420Z,99.90
2019-05-16T02:50:22.427Z,99.90
2019-05-16T02:52:51.669Z,99.90
2019-05-16T02:55:21.681Z,99.90
2019-05-16T02:57:51.000Z,99.90
2019-05-16T03:00:34.504Z,99.90
2019-05-16T03:03:04.665Z,99.90
2019-05-16T03:05:34.161Z,99.90
2019-05-16T03:08:03.342Z,99.90
2019-05-16T03:10:32.966Z,99.90
2019-05-16T03:13:01.643Z,99.90
2019-05-16T03:15:31.101Z,99.90
2019-05-16T03:18:03.896Z,99.90
2019-05-16T03:20:33.535Z,99.90
2019-05-16T03:23:02.537Z,99.90
2019-05-16T03:25:31.444Z,99.90
2019-05-16T03:28:01.856Z,99.90
2019-05-16T03:30:35.312Z,99.90
2019-05-16T03:33:04.814Z,99.90
2019-05-16T03:35:33.861Z,99.90
2019-05-16T03:38:05.169Z,99.90
2019-05-16T03:40:34.076Z,99.90
2019-05-16T03:43:02.633Z,99.90
2019-05-16T03:45:31.986Z,99.90
2019-05-16T03:48:02.853Z,99.90
2019-05-16T03:50:31.092Z,99.90
2019-05-16T03:53:01.556Z,99.90
2019-05-16T03:55:32.643Z,99.90
2019-05-16T03:58:01.347Z,99.90
2019-05-16T04:00:51.305Z,99.90
2019-05-16T04:03:21.140Z,99.90
2019-05-16T04:05:52.116Z,99.90
2019-05-16T04:08:23.866Z,99.90
2019-05-16T04:10:51.954Z,99.90
2019-05-16T04:13:21.446Z,99.90
2019-05-16T04:15:52.368Z,99.90
2019-05-16T04:18:22.063Z,99.90
2019-05-16T04:20:52.346Z,99.90
2019-05-16T04:23:20.580Z,99.90
2019-05-16T04:25:52.514Z,99.90
2019-05-16T04:28:21.967Z,99.90
2019-05-16T04:32:51.172Z,99.90
2019-05-16T04:35:21.471Z,99.90
2019-05-16T04:37:51.264Z,99.90
2019-05-16T04:40:21.891Z,99.90
2019-05-16T04:42:51.464Z,99.90
2019-05-16T04:45:21.107Z,99.90
2019-05-16T04:47:51.275Z,99.90
2019-05-16T04:50:21.110Z,99.90
2019-05-16T04:52:51.709Z,99.90
2019-05-16T04:55:21.059Z,99.90
2019-05-16T04:57:51.194Z,99.90
2019-05-16T05:00:21.148Z,99.90
2019-05-16T05:02:51.893Z,99.90
2019-05-16T05:05:21.533Z,99.90
2019-05-16T05:07:51.155Z,99.90
2019-05-16T05:10:21.326Z,99.90
2019-05-16T05:12:51.584Z,99.90
2019-05-16T05:15:21.244Z,99.90
2019-05-16T05:17:50.407Z,99.90
2019-05-16T05:20:21.016Z,99.90
2019-05-16T05:22:50.924Z,99.90
2019-05-16T05:25:20.414Z,99.90
2019-05-16T05:27:50.129Z,99.90
2019-05-16T05:30:19.847Z,99.90
2019-05-16T05:32:50.238Z,99.90
2019-05-16T05:35:20.547Z,99.90
2019-05-16T05:37:50.763Z,99.90
2019-05-16T05:40:20.102Z,99.90
2019-05-16T05:42:50.516Z,99.90
2019-05-16T05:45:20.173Z,99.90
2019-05-16T05:47:50.519Z,99.90
2019-05-16T05:50:20.143Z,99.90
2019-05-16T05:52:51.153Z,99.90
2019-05-16T05:55:20.050Z,99.90
2019-05-16T05:57:50.645Z,99.90
2019-05-16T06:00:21.138Z,99.90
2019-05-16T06:02:50.791Z,99.90
2019-05-16T06:05:20.202Z,99.90
2019-05-16T06:07:50.986Z,99.90
2019-05-16T06:10:19.943Z,99.90
2019-05-16T06:12:50.122Z,99.90
2019-05-16T06:15:20.244Z,99.90
2019-05-16T06:17:50.919Z,99.90
2019-05-16T06:20:20.567Z,99.90
2019-05-16T06:22:50.908Z,99.90
2019-05-16T06:25:22.996Z,99.90
2019-05-16T06:27:51.155Z,99.90
2019-05-16T06:30:21.441Z,99.90
2019-05-16T06:32:50.283Z,99.90
2019-05-16T06:35:20.574Z,99.90
2019-05-16T06:37:49.977Z,99.90
2019-05-16T06:40:20.288Z,99.90
2019-05-16T06:42:51.042Z,99.90
2019-05-16T06:45:20.566Z,99.90
2019-05-16T06:47:50.433Z,99.90
2019-05-16T06:50:20.828Z,99.50
2019-05-16T06:52:50.190Z,99.90
2019-05-16T06:55:20.480Z,99.90
2019-05-16T06:57:50.357Z,99.70
2019-05-16T07:00:20.990Z,98.20
2019-05-16T07:02:49.930Z,98.50
2019-05-16T07:05:20.767Z,98.80
2019-05-16T07:07:50.943Z,98.80
2019-05-16T07:10:20.324Z,98.60
2019-05-16T07:12:50.452Z,98.20
2019-05-16T07:15:20.608Z,98.50
2019-05-16T07:17:50.631Z,98.00
2019-05-16T07:20:21.077Z,97.80
2019-05-16T07:22:50.420Z,96.20
2019-05-16T07:25:20.786Z,96.50
2019-05-16T07:27:51.094Z,96.10
2019-05-16T07:30:20.123Z,96.00
2019-05-16T07:32:50.019Z,96.60
2019-05-16T07:35:20.527Z,96.90
2019-05-16T07:37:49.989Z,96.40
2019-05-16T07:40:26.237Z,96.10
2019-05-16T07:42:50.948Z,96.80
2019-05-16T07:45:20.384Z,96.20
2019-05-16T07:47:51.008Z,96.60
2019-05-16T07:50:20.205Z,96.30
2019-05-16T07:52:51.117Z,95.70
2019-05-16T07:55:20.874Z,95.20
2019-05-16T07:57:50.671Z,95.00
2019-05-16T08:00:21.620Z,95.50
2019-05-16T08:02:50.567Z,94.80
2019-05-16T08:05:21.078Z,95.10
2019-05-16T08:07:51.188Z,94.90
2019-05-16T08:10:37.044Z,94.00
2019-05-16T08:12:51.294Z,93.40
2019-05-16T08:17:51.254Z,93.40
2019-05-16T08:20:21.398Z,93.80
2019-05-16T08:22:50.903Z,93.50
2019-05-16T08:30:21.053Z,91.90
2019-05-16T08:32:52.859Z,92.60
2019-05-16T08:35:21.010Z,92.80
2019-05-16T08:37:51.469Z,91.40
2019-05-16T08:40:21.477Z,91.90
2019-05-16T08:42:51.942Z,91.80
2019-05-16T08:45:21.444Z,91.80
2019-05-16T08:47:52.594Z,92.30
2019-05-16T08:50:04.936Z,93.90
2019-05-16T08:50:21.928Z,91.30
2019-05-16T08:52:52.721Z,91.80
2019-05-16T08:55:21.749Z,91.80
2019-05-16T08:57:53.042Z,92.30
2019-05-16T09:00:21.898Z,91.70
2019-05-16T09:02:52.554Z,90.90
2019-05-16T09:05:22.528Z,91.40
2019-05-16T09:08:00.216Z,91.30
2019-05-16T09:10:26.226Z,93.40
2019-05-16T09:10:35.466Z,93.30
2019-05-16T09:12:51.936Z,90.80
2019-05-16T09:15:20.544Z,91.00
2019-05-16T09:17:49.004Z,90.90
2019-05-16T09:20:17.840Z,90.10
2019-05-16T09:22:48.058Z,90.60
2019-05-16T09:25:18.609Z,90.10
2019-05-16T09:27:47.370Z,90.20
2019-05-16T09:30:17.442Z,89.10
2019-05-16T09:32:47.954Z,90.00
2019-05-16T09:35:17.607Z,90.40
2019-05-16T09:37:47.355Z,89.00
2019-05-16T09:40:17.329Z,88.80
2019-05-16T09:42:47.418Z,87.40
2019-05-16T09:45:17.320Z,90.00
2019-05-16T09:47:48.446Z,87.40
2019-05-16T09:50:17.394Z,87.40
2019-05-16T09:52:47.211Z,87.30
2019-05-16T09:55:17.553Z,85.40
2019-05-16T09:57:46.951Z,84.70
2019-05-16T10:00:20.444Z,82.60
2019-05-16T10:02:49.089Z,82.00
2019-05-16T10:05:18.000Z,81.40
2019-05-16T10:07:47.060Z,81.10
2019-05-16T10:10:17.256Z,79.40
2019-05-16T10:12:45.908Z,79.60
2019-05-16T10:15:17.614Z,81.60
2019-05-16T10:17:47.596Z,80.80
2019-05-16T10:21:02.639Z,79.60
2019-05-16T10:23:31.168Z,78.40
2019-05-16T10:25:59.619Z,78.50
2019-05-16T10:28:28.334Z,77.30
2019-05-16T10:30:57.314Z,76.60
2019-05-16T10:33:27.485Z,76.90
2019-05-16T10:35:58.078Z,75.60
2019-05-16T10:38:28.724Z,74.40
2019-05-16T10:40:57.361Z,75.30
2019-05-16T10:43:26.519Z,72.90
2019-05-16T10:45:55.158Z,72.50
2019-05-16T10:48:23.769Z,73.60
2019-05-16T10:50:52.331Z,72.40
2019-05-16T10:53:42.733Z,71.90
2019-05-16T10:55:51.187Z,73.00
2019-05-16T10:58:35.661Z,74.00
2019-05-16T11:01:10.945Z,74.70
2019-05-16T11:03:20.234Z,71.90
2019-05-16T11:06:03.065Z,73.90
2019-05-16T11:08:19.111Z,70.90
2019-05-16T11:10:47.768Z,70.60
2019-05-16T11:13:17.058Z,70.40
2019-05-16T11:15:47.380Z,71.40
2019-05-16T11:18:17.562Z,70.80
2019-05-16T11:21:05.738Z,68.50
2019-05-16T11:23:36.587Z,70.00
2019-05-16T11:26:04.619Z,70.30
2019-05-16T11:28:33.105Z,69.50
2019-05-16T11:31:03.863Z,68.60
2019-05-16T11:33:31.924Z,69.80
2019-05-16T11:36:00.532Z,69.40
2019-05-16T11:38:29.107Z,71.60
2019-05-16T11:40:57.762Z,71.80
2019-05-16T11:43:27.862Z,73.30
2019-05-16T11:45:57.358Z,72.70
2019-05-16T11:48:29.018Z,71.20
2019-05-16T11:50:56.913Z,68.90
2019-05-16T11:53:28.196Z,70.20
2019-05-16T11:56:00.762Z,69.20
2019-05-16T11:58:26.647Z,67.90
2019-05-16T12:00:57.464Z,67.00
2019-05-16T12:03:28.242Z,64.60
2019-05-16T12:05:58.008Z,66.70
2019-05-16T12:08:26.584Z,62.00
2019-05-16T12:10:55.172Z,60.90
2019-05-16T12:13:29.770Z,61.80
2019-05-16T12:15:56.400Z,58.00
2019-05-16T12:18:26.379Z,60.20
2019-05-16T12:20:56.435Z,55.90
2019-05-16T12:23:24.482Z,57.10
2019-05-16T12:25:53.080Z,57.70
2019-05-16T12:28:21.564Z,51.10
2019-05-16T12:30:50.175Z,48.80
2019-05-16T12:33:19.073Z,48.20
2019-05-16T12:35:47.708Z,48.80
2019-05-16T12:38:17.018Z,49.80
2019-05-16T12:40:47.988Z,52.80
2019-05-16T12:43:18.071Z,52.40
2019-05-16T12:45:47.285Z,52.80
2019-05-16T12:48:19.927Z,55.80
2019-05-16T12:50:48.109Z,52.90
2019-05-16T12:53:16.751Z,50.50
2019-05-16T12:55:47.496Z,48.10
2019-05-16T12:58:24.596Z,47.80
2019-05-16T13:00:54.070Z,47.70
2019-05-16T13:03:16.338Z,47.50
2019-05-16T13:05:47.550Z,46.70
2019-05-16T13:08:17.378Z,49.40
2019-05-16T13:10:47.117Z,49.60
2019-05-16T13:13:17.761Z,49.30
2019-05-16T13:15:47.540Z,49.80
2019-05-16T13:18:16.897Z,49.70
2019-05-16T13:20:46.775Z,47.80
2019-05-16T13:23:18.161Z,48.30
2019-05-16T13:25:48.228Z,49.30
2019-05-16T13:28:16.452Z,49.70
2019-05-16T13:30:47.201Z,51.30
2019-05-16T13:33:17.538Z,49.40
2019-05-16T13:35:47.146Z,51.40
2019-05-16T13:38:17.231Z,51.70
2019-05-16T13:40:46.125Z,52.00
2019-05-16T13:43:17.252Z,51.30
2019-05-16T13:45:47.217Z,53.00
2019-05-16T13:48:17.233Z,52.60
2019-05-16T13:50:47.467Z,54.30
2019-05-16T13:53:16.372Z,53.00
2019-05-16T13:55:45.054Z,54.40
2019-05-16T13:58:13.580Z,53.80
2019-05-16T14:00:42.181Z,52.90
2019-05-16T14:03:10.748Z,52.80
2019-05-16T14:05:39.282Z,53.30
2019-05-16T14:08:07.821Z,54.30
2019-05-16T14:10:37.611Z,53.80
2019-05-16T14:13:07.507Z,54.00
2019-05-16T14:15:37.101Z,55.70
2019-05-16T14:18:07.798Z,55.80
2019-05-16T14:20:37.639Z,52.60
2019-05-16T14:23:08.509Z,52.30
2019-05-16T14:25:37.990Z,52.30
2019-05-16T14:28:07.680Z,52.60
2019-05-16T14:30:37.294Z,53.00
2019-05-16T14:33:13.481Z,54.30
2019-05-16T14:35:37.645Z,55.10
2019-05-16T14:38:06.429Z,54.40
2019-05-16T14:40:37.249Z,54.70
2019-05-16T14:43:08.209Z,54.50
2019-05-16T14:45:37.183Z,54.70
2019-05-16T14:48:07.651Z,54.70
2019-05-16T14:50:37.532Z,54.80
2019-05-16T14:53:07.371Z,55.10
2019-05-16T14:55:38.390Z,55.20
2019-05-16T14:58:07.616Z,54.70
2019-05-16T15:00:38.329Z,55.20
2019-05-16T15:03:08.344Z,55.70
2019-05-16T15:05:42.395Z,55.90
2019-05-16T15:08:08.286Z,56.80
2019-05-16T15:10:37.735Z,56.70
2019-05-16T15:13:07.897Z,57.70
2019-05-16T15:15:37.707Z,57.70
2019-05-16T15:18:08.136Z,58.20
2019-05-16T15:20:37.138Z,58.80
2019-05-16T15:23:07.713Z,59.20
2019-05-16T15:25:37.431Z,58.90
2019-05-16T15:28:07.489Z,59.40
2019-05-16T15:30:39.087Z,60.10
2019-05-16T15:33:08.542Z,60.60
2019-05-16T15:35:38.116Z,61.00
2019-05-16T15:38:07.777Z,58.60
2019-05-16T15:40:37.684Z,59.40
2019-05-16T15:43:07.835Z,58.10
2019-05-16T15:45:48.091Z,57.00
2019-05-16T15:48:13.514Z,56.90
2019-05-16T15:50:42.321Z,58.10
2019-05-16T15:53:11.326Z,57.10
2019-05-16T15:55:39.859Z,58.40
2019-05-16T15:58:10.377Z,59.10
2019-05-16T16:00:42.245Z,58.60
2019-05-16T16:03:11.132Z,57.30
2019-05-16T16:05:39.903Z,58.20
2019-05-16T16:08:08.493Z,58.90
2019-05-16T16:10:39.435Z,59.00
2019-05-16T16:13:07.947Z,59.50
2019-05-16T16:15:49.834Z,60.00
2019-05-16T16:18:08.870Z,60.60
2019-05-16T16:20:37.947Z,60.80
2019-05-16T16:23:06.942Z,60.70
2019-05-16T16:25:35.750Z,60.70
2019-05-16T16:28:07.371Z,60.50
2019-05-16T16:30:37.453Z,61.50
2019-05-16T16:33:20.803Z,61.70
2019-05-16T16:35:37.960Z,61.50
2019-05-16T16:38:07.033Z,61.80
2019-05-16T16:40:37.474Z,62.10
2019-05-16T16:43:08.025Z,62.10
2019-05-16T16:45:37.311Z,62.40
2019-05-16T16:48:07.896Z,62.30
2019-05-16T16:50:37.131Z,62.20
2019-05-16T16:53:07.089Z,62.40
2019-05-16T16:55:36.988Z,62.70
2019-05-16T16:58:09.245Z,63.20
2019-05-16T17:00:37.706Z,64.00
2019-05-16T17:03:10.063Z,65.10
2019-05-16T17:05:37.162Z,65.00
2019-05-16T17:08:07.641Z,66.50
2019-05-16T17:10:38.031Z,66.10
2019-05-16T17:13:07.115Z,66.40
2019-05-16T17:15:36.681Z,66.90
2019-05-16T17:18:06.977Z,66.10
2019-05-16T17:20:37.275Z,66.50
2019-05-16T17:23:06.943Z,67.90
2019-05-16T17:25:36.777Z,68.10
2019-05-16T17:28:07.053Z,67.80
2019-05-16T17:30:36.758Z,68.60
2019-05-16T17:33:07.560Z,68.90
2019-05-16T17:35:38.582Z,68.80
2019-05-16T17:38:06.802Z,68.80
2019-05-16T17:40:37.834Z,69.60
2019-05-16T17:43:07.439Z,69.80
2019-05-16T17:45:37.618Z,69.60
2019-05-16T17:48:07.268Z,70.40
2019-05-16T17:50:37.464Z,71.50
2019-05-16T17:53:07.263Z,71.40
2019-05-16T17:55:36.865Z,70.90
2019-05-16T17:58:08.804Z,70.70
2019-05-16T18:00:36.415Z,71.10
2019-05-16T18:03:06.660Z,71.20
2019-05-16T18:05:37.029Z,71.90
2019-05-16T18:08:07.531Z,72.00
2019-05-16T18:10:36.459Z,72.50
2019-05-16T18:13:07.844Z,72.50
2019-05-16T18:15:36.689Z,73.20
2019-05-16T18:18:07.124Z,73.40
2019-05-16T18:20:37.298Z,73.40
2019-05-16T18:23:07.017Z,75.00
2019-05-16T18:25:36.507Z,75.00
2019-05-16T18:28:07.865Z,75.50
2019-05-16T18:30:36.750Z,75.30
2019-05-16T18:33:07.369Z,75.20
2019-05-16T18:35:36.976Z,75.60
2019-05-16T18:38:07.285Z,76.60
2019-05-16T18:40:36.810Z,76.70
2019-05-16T18:43:08.080Z,76.90
2019-05-16T18:45:36.630Z,77.00
2019-05-16T18:48:07.408Z,78.30
2019-05-16T18:50:57.411Z,78.50
2019-05-16T18:53:26.996Z,78.90
2019-05-16T18:55:57.079Z,79.60
2019-05-16T18:58:26.967Z,80.30
2019-05-16T19:00:55.659Z,80.10
2019-05-16T19:03:26.844Z,81.30
2019-05-16T19:05:56.947Z,81.20
2019-05-16T19:08:26.887Z,81.70
2019-05-16T19:10:59.521Z,82.30
2019-05-16T19:13:27.248Z,82.90
2019-05-16T19:15:57.167Z,83.50
2019-05-16T19:18:26.332Z,83.40
2019-05-16T19:20:56.873Z,83.80
2019-05-16T19:23:26.966Z,84.10
2019-05-16T19:25:56.980Z,84.50
2019-05-16T19:28:28.291Z,85.00
2019-05-16T19:30:57.225Z,85.30
2019-05-16T19:33:25.962Z,85.90
2019-05-16T19:35:56.509Z,86.30
2019-05-16T19:38:26.500Z,87.20
2019-05-16T19:40:57.216Z,87.10
2019-05-16T19:43:26.453Z,88.10
2019-05-16T19:45:57.256Z,88.60
2019-05-16T19:48:26.700Z,88.30
2019-05-16T19:50:56.916Z,88.90
2019-05-16T19:53:27.200Z,88.80
2019-05-16T19:55:56.598Z,89.10
2019-05-16T19:58:26.609Z,89.50
2019-05-16T20:00:57.257Z,90.20
2019-05-16T20:03:27.263Z,90.20
2019-05-16T20:05:56.848Z,90.00
2019-05-16T20:08:26.969Z,90.30
2019-05-16T20:10:55.934Z,90.20
2019-05-16T20:13:27.490Z,90.40
2019-05-16T20:15:56.490Z,90.50
2019-05-16T20:18:27.360Z,90.80
2019-05-16T20:20:56.763Z,91.10
2019-05-16T20:23:27.673Z,91.10
2019-05-16T20:25:57.137Z,91.40
2019-05-16T20:28:26.888Z,91.40
2019-05-16T20:30:57.104Z,91.40
2019-05-16T20:33:27.445Z,91.40
2019-05-16T20:35:57.510Z,92.00
2019-05-16T20:38:26.792Z,91.70
2019-05-16T20:40:59.476Z,91.90
2019-05-16T20:43:26.228Z,92.00
2019-05-16T20:45:56.889Z,92.20
2019-05-16T20:50:57.318Z,92.30
2019-05-16T20:53:27.111Z,92.60
2019-05-16T20:55:57.273Z,92.80
2019-05-16T20:58:26.267Z,92.90
2019-05-16T21:01:00.741Z,93.00
2019-05-16T21:03:27.038Z,93.20
2019-05-16T21:05:57.903Z,93.50
2019-05-16T21:08:26.599Z,93.80
2019-05-16T21:10:57.043Z,94.10
2019-05-16T21:13:25.663Z,94.60
2019-05-16T21:15:54.561Z,95.00
2019-05-16T21:18:23.163Z,95.40
2019-05-16T21:20:51.775Z,95.90
2019-05-16T21:23:20.383Z,96.50
2019-05-16T21:25:48.913Z,97.10
2019-05-16T21:28:19.871Z,97.50
2019-05-16T21:30:47.658Z,97.80
2019-05-16T21:33:18.453Z,98.20
2019-05-16T21:35:47.044Z,98.80
2019-05-16T21:38:16.536Z,99.40
2019-05-16T21:40:45.303Z,99.90
2019-05-16T21:43:13.909Z,99.90
2019-05-16T21:45:42.397Z,99.90
2019-05-16T21:48:10.860Z,99.90
2019-05-16T21:50:39.404Z,99.90
2019-05-16T21:53:07.911Z,99.90
2019-05-16T21:55:37.117Z,99.90
2019-05-16T21:58:05.799Z,99.90
2019-05-16T22:00:44.124Z,99.90
2019-05-16T22:03:14.123Z,99.90
2019-05-16T22:05:42.829Z,99.90
2019-05-16T22:08:11.967Z,99.90
2019-05-16T22:10:40.653Z,99.90
2019-05-16T22:13:09.251Z,99.90
2019-05-16T22:15:37.871Z,99.90
2019-05-16T22:18:07.270Z,99.90
2019-05-16T22:20:36.079Z,99.90
2019-05-16T22:23:06.808Z,99.90
2019-05-16T22:25:34.976Z,99.90
2019-05-16T22:28:03.651Z,99.90
2019-05-16T22:30:32.369Z,99.90
2019-05-16T22:33:01.485Z,99.90
2019-05-16T22:35:30.115Z,99.90
2019-05-16T22:37:59.394Z,99.90
2019-05-16T22:40:28.101Z,99.90
2019-05-16T22:42:57.596Z,99.90
2019-05-16T22:45:27.048Z,99.90
2019-05-16T22:47:55.720Z,99.90
2019-05-16T22:50:26.917Z,99.90
2019-05-16T22:52:56.799Z,99.90
2019-05-16T22:55:26.506Z,99.90
2019-05-16T22:57:56.464Z,99.90
2019-05-16T23:00:29.843Z,99.90
2019-05-16T23:02:58.444Z,99.90
2019-05-16T23:05:27.493Z,99.90
2019-05-16T23:08:05.715Z,99.90
2019-05-16T23:10:28.003Z,99.90
2019-05-16T23:12:57.238Z,99.90
2019-05-16T23:15:26.650Z,99.90
2019-05-16T23:17:57.387Z,99.90
2019-05-16T23:20:27.792Z,99.90
2019-05-16T23:22:56.350Z,99.90
2019-05-16T23:25:25.042Z,99.90
2019-05-16T23:27:53.578Z,99.90
2019-05-16T23:30:22.253Z,99.90
2019-05-16T23:32:50.817Z,99.90
2019-05-16T23:35:19.419Z,99.90
2019-05-16T23:37:47.876Z,99.90
2019-05-16T23:40:16.688Z,99.90
2019-05-16T23:42:46.442Z,99.90
2019-05-16T23:45:17.183Z,99.90
2019-05-16T23:47:47.125Z,99.90
2019-05-16T23:50:17.357Z,99.90
2019-05-16T23:52:47.052Z,99.90
2019-05-16T23:55:17.361Z,99.90
2019-05-16T23:57:46.712Z,99.90
